^^
Meteo Knjazevac Station Historical Data
Daily Summary for February 26, 2021 Units:  Metric    English   Both
Daily Weekly Monthly Yearly Custom
  High: Low: Average:
Temperature: 10.5 °C -1.7 °C 2.1 °C
Dew Point: 6.6 °C -2.3 °C 1.2 °C
Humidity: 99% 75% 94%
Wind Speed: 9.7km/h 0km/h 2.9km/h
Wind Gust: 19.3km/h - -
Wind- - SE
Pressure: 1029 hPa 1025.3 hPa -
Precipitation: 0 mm    
Historical Graphs
 
 
Tabular Data for February 26, 2021
Time Temperature Dew Point Pressure Wind Wind Speed Wind Gust Humidity Rainfall Rate (Hourly) solar Conditions
00:00 2.2 °C 1.2 °C 1029 hPa ESE 1.6 km/h 3.2 km/h 93% 0 mm 0 W/m2
00:10 2.1 °C 1.2 °C 1029 hPa Calm   4.8 km/h 94% 0 mm 0 W/m2
00:20 1.9 °C 0.9 °C 1029 hPa North 1.6 km/h 3.2 km/h 93% 0 mm 0 W/m2
00:30 1.6 °C 0.6 °C 1029 hPa NW 1.6 km/h 4.8 km/h 93% 0 mm 0 W/m2
00:40 1.5 °C 0.5 °C 1029 hPa Calm   4.8 km/h 93% 0 mm 0 W/m2
00:50 1.2 °C 0.2 °C 1029 hPa Calm   4.8 km/h 93% 0 mm 0 W/m2
01:00 1 °C 0 °C 1029 hPa NW 1.6 km/h 8 km/h 93% 0 mm 0 W/m2
01:10 0.9 °C 0.1 °C 1029 hPa NNW 1.6 km/h 8 km/h 94% 0 mm 0 W/m2
01:20 0.7 °C -0.2 °C 1029 hPa WNW 3.2 km/h 8 km/h 94% 0 mm 0 W/m2
01:30 0.7 °C -0.2 °C 1029 hPa Calm   3.2 km/h 94% 0 mm 0 W/m2
01:40 0.6 °C -0.3 °C 1029 hPa NW 1.6 km/h 3.2 km/h 94% 0 mm 0 W/m2
01:50 0.3 °C -0.6 °C 1029 hPa Calm   4.8 km/h 94% 0 mm 0 W/m2
02:00 0.2 °C -0.7 °C 1029 hPa Calm   3.2 km/h 94% 0 mm 0 W/m2
02:10 0 °C -0.8 °C 1029 hPa Calm   6.4 km/h 94% 0 mm 0 W/m2
02:20 0 °C -0.7 °C 1028.7 hPa Calm   3.2 km/h 95% 0 mm 0 W/m2
02:30 -0.1 °C -0.8 °C 1029 hPa Calm   3.2 km/h 95% 0 mm 0 W/m2
02:40 -0.2 °C -0.9 °C 1028.7 hPa Calm   3.2 km/h 95% 0 mm 0 W/m2
02:50 -0.3 °C -1 °C 1028.7 hPa NW 1.6 km/h 3.2 km/h 95% 0 mm 0 W/m2
03:00 -0.4 °C -1.1 °C 1028.7 hPa WNW 1.6 km/h 4.8 km/h 95% 0 mm 0 W/m2
03:10 -0.5 °C -1.2 °C 1028.3 hPa West 3.2 km/h 6.4 km/h 95% 0 mm 0 W/m2
03:20 -0.6 °C -1.3 °C 1028.3 hPa WNW 1.6 km/h 4.8 km/h 95% 0 mm 0 W/m2
03:30 -0.7 °C -1.4 °C 1028.3 hPa WNW 3.2 km/h 3.2 km/h 95% 0 mm 0 W/m2
03:40 -0.8 °C -1.5 °C 1028.3 hPa North 1.6 km/h 4.8 km/h 95% 0 mm 0 W/m2
03:50 -0.8 °C -1.5 °C 1028.3 hPa Calm   3.2 km/h 95% 0 mm 0 W/m2
04:00 -0.9 °C -1.6 °C 1028.3 hPa NNE 1.6 km/h 3.2 km/h 95% 0 mm 0 W/m2
04:10 -0.9 °C -1.6 °C 1028.3 hPa NNW 1.6 km/h 3.2 km/h 95% 0 mm 0 W/m2
04:20 -1.1 °C -1.8 °C 1028.3 hPa NW 3.2 km/h 4.8 km/h 95% 0 mm 0 W/m2
04:30 -1.2 °C -1.9 °C 1028.3 hPa NNW 1.6 km/h 3.2 km/h 95% 0 mm 0 W/m2
04:40 -1.2 °C -1.9 °C 1028.3 hPa WNW 1.6 km/h 3.2 km/h 95% 0 mm 0 W/m2
04:50 -1.2 °C -1.8 °C 1028.3 hPa Calm   3.2 km/h 96% 0 mm 0 W/m2
05:00 -1.4 °C -2.1 °C 1028.3 hPa West 1.6 km/h 4.8 km/h 95% 0 mm 0 W/m2
05:10 -1.6 °C -2.3 °C 1028.3 hPa WNW 4.8 km/h 6.4 km/h 95% 0 mm 0 W/m2
05:20 -1.7 °C -2.3 °C 1028.3 hPa NW 1.6 km/h 6.4 km/h 96% 0 mm 0 W/m2
05:30 -1.5 °C -2.1 °C 1028.3 hPa Calm   3.2 km/h 96% 0 mm 0 W/m2
05:40 -1.4 °C -1.7 °C 1028.3 hPa Calm   3.2 km/h 98% 0 mm 0 W/m2
05:50 -1.3 °C -1.6 °C 1028.3 hPa WNW 1.6 km/h 4.8 km/h 98% 0 mm 0 W/m2
06:00 -1.2 °C -1.5 °C 1028.3 hPa WNW 3.2 km/h 6.4 km/h 98% 0 mm 0 W/m2
06:10 -1 °C -1.1 °C 1028.3 hPa WNW 3.2 km/h 8 km/h 99% 0 mm 0 W/m2
06:20 -0.8 °C -0.9 °C 1028.3 hPa WNW 3.2 km/h 4.8 km/h 99% 0 mm 0 W/m2
06:30 -0.6 °C -0.7 °C 1028 hPa Calm   3.2 km/h 99% 0 mm 0 W/m2
06:40 -0.6 °C -0.7 °C 1028 hPa NW 1.6 km/h 3.2 km/h 99% 0 mm 0 W/m2
06:50 -0.5 °C -0.8 °C 1028 hPa Calm   3.2 km/h 98% 0 mm 0 W/m2
07:00 -0.5 °C -0.8 °C 1028.3 hPa WNW 3.2 km/h 4.8 km/h 98% 0 mm 1 W/m2
07:10 -0.4 °C -0.7 °C 1028.3 hPa Calm   3.2 km/h 98% 0 mm 3 W/m2
07:20 -0.3 °C -0.6 °C 1028.3 hPa WNW 1.6 km/h 4.8 km/h 98% 0 mm 8 W/m2
07:30 -0.2 °C -0.5 °C 1028.3 hPa West 1.6 km/h 4.8 km/h 98% 0 mm 11 W/m2
07:40 -0.1 °C -0.4 °C 1028.3 hPa Calm   3.2 km/h 98% 0 mm 17 W/m2
07:50 0.1 °C -0.1 °C 1028.7 hPa Calm   3.2 km/h 99% 0 mm 20 W/m2
08:00 0.3 °C 0.2 °C 1028.7 hPa Calm   3.2 km/h 99% 0 mm 28 W/m2
08:10 0.6 °C 0.4 °C 1028.7 hPa NNW 1.6 km/h 3.2 km/h 99% 0 mm 38 W/m2
08:20 0.8 °C 0.7 °C 1028.7 hPa NNE 1.6 km/h 4.8 km/h 99% 0 mm 39 W/m2
08:30 1.1 °C 0.9 °C 1028.7 hPa NNE 3.2 km/h 6.4 km/h 99% 0 mm 55 W/m2
08:40 1.3 °C 1.2 °C 1028.7 hPa NE 1.6 km/h 4.8 km/h 99% 0 mm 56 W/m2
08:50 1.4 °C 1.3 °C 1028.7 hPa North 1.6 km/h 4.8 km/h 99% 0 mm 63 W/m2
09:00 1.7 °C 1.6 °C 1028.7 hPa NNE 1.6 km/h 3.2 km/h 99% 0 mm 62 W/m2
09:10 1.9 °C 1.8 °C 1028.3 hPa NNE 4.8 km/h 8 km/h 99% 0 mm 70 W/m2
09:20 2.1 °C 1.9 °C 1028.3 hPa NNE 3.2 km/h 11.3 km/h 99% 0 mm 70 W/m2
09:30 2.2 °C 2.1 °C 1028.3 hPa NNE 3.2 km/h 9.7 km/h 99% 0 mm 103 W/m2
09:40 2.4 °C 2.3 °C 1028.3 hPa NE 8 km/h 11.3 km/h 99% 0 mm 115 W/m2
09:50 2.6 °C 2.4 °C 1028.3 hPa NNE 4.8 km/h 11.3 km/h 99% 0 mm 114 W/m2
10:00 2.8 °C 2.7 °C 1028.3 hPa NNE 9.7 km/h 12.9 km/h 99% 0 mm 124 W/m2
10:10 3 °C 2.8 °C 1028.3 hPa NNE 3.2 km/h 11.3 km/h 99% 0 mm 111 W/m2
10:20 3.2 °C 3.1 °C 1028.3 hPa North 8 km/h 11.3 km/h 99% 0 mm 117 W/m2
10:30 3.3 °C 3 °C 1028.3 hPa NNE 4.8 km/h 14.5 km/h 98% 0 mm 112 W/m2
10:40 3.5 °C 3.2 °C 1028.3 hPa NNE 3.2 km/h 12.9 km/h 98% 0 mm 108 W/m2
10:50 3.6 °C 3 °C 1028.3 hPa North 4.8 km/h 11.3 km/h 96% 0 mm 114 W/m2
11:00 3.6 °C 3.1 °C 1028 hPa North 4.8 km/h 11.3 km/h 96% 0 mm 107 W/m2
11:10 3.8 °C 3.2 °C 1028 hPa North 4.8 km/h 12.9 km/h 96% 0 mm 122 W/m2
11:20 4 °C 3.4 °C 1028 hPa North 4.8 km/h 9.7 km/h 96% 0 mm 139 W/m2
11:30 4.2 °C 3.4 °C 1028 hPa NNE 4.8 km/h 12.9 km/h 95% 0 mm 166 W/m2
11:40 4.4 °C 3.7 °C 1027.7 hPa NNE 4.8 km/h 12.9 km/h 95% 0 mm 163 W/m2
11:50 4.7 °C 3.8 °C 1027.7 hPa NNE 9.7 km/h 12.9 km/h 94% 0 mm 203 W/m2
12:00 5 °C 4.1 °C 1027.7 hPa NNE 8 km/h 12.9 km/h 94% 0 mm 191 W/m2
12:10 5.2 °C 4.2 °C 1027.3 hPa NNE 3.2 km/h 12.9 km/h 93% 0 mm 207 W/m2
12:20 5.5 °C 4.4 °C 1027.3 hPa North 3.2 km/h 17.7 km/h 93% 0 mm 260 W/m2
12:30 5.8 °C 4.4 °C 1027.3 hPa NNE 4.8 km/h 14.5 km/h 91% 0 mm 302 W/m2
12:40 6.1 °C 4.6 °C 1027 hPa NNE 4.8 km/h 14.5 km/h 90% 0 mm 320 W/m2
12:50 6.7 °C 5.2 °C 1027 hPa NNE 4.8 km/h 12.9 km/h 90% 0 mm 506 W/m2
13:00 7.6 °C 5.7 °C 1026.6 hPa NNE 4.8 km/h 19.3 km/h 88% 0 mm 507 W/m2
13:10 8.2 °C 5.8 °C 1026.6 hPa North 3.2 km/h 12.9 km/h 85% 0 mm 499 W/m2
13:20 8.8 °C 6.2 °C 1026.3 hPa NNE 9.7 km/h 16.1 km/h 84% 0 mm 490 W/m2
13:30 9.1 °C 6.1 °C 1026.3 hPa NNE 4.8 km/h 14.5 km/h 81% 0 mm 479 W/m2
13:40 9.4 °C 6.1 °C 1026 hPa NNE 8 km/h 16.1 km/h 80% 0 mm 466 W/m2
13:50 9.7 °C 6.2 °C 1026 hPa North 8 km/h 19.3 km/h 79% 0 mm 452 W/m2
14:00 9.9 °C 6.3 °C 1026 hPa NNE 8 km/h 14.5 km/h 78% 0 mm 437 W/m2
14:10 10.2 °C 6.6 °C 1025.6 hPa North 4.8 km/h 12.9 km/h 78% 0 mm 420 W/m2
14:20 10.4 °C 6.6 °C 1025.3 hPa NNE 8 km/h 17.7 km/h 77% 0 mm 403 W/m2
14:30 10.5 °C 6.3 °C 1025.3 hPa North 4.8 km/h 16.1 km/h 75% 0 mm 384 W/m2
Knjazevac, Serbia
Compliments of Weather Underground - 2 mb